createdAt,value
2022-12-22T00:00:22.389Z,84.42
2022-12-22T00:03:08.004Z,86.55
2022-12-22T00:05:53.541Z,85.10
2022-12-22T00:08:39.082Z,83.45
2022-12-22T00:11:29.297Z,82.70
2022-12-22T00:14:15.563Z,83.64
2022-12-22T00:17:01.243Z,82.98
2022-12-22T00:19:48.592Z,85.22
2022-12-22T00:22:42.296Z,84.18
2022-12-22T00:25:32.361Z,82.53
2022-12-22T00:28:18.100Z,82.26
2022-12-22T00:31:04.648Z,82.61
2022-12-22T00:33:50.582Z,81.66
2022-12-22T00:36:36.765Z,82.40
2022-12-22T00:39:27.999Z,84.57
2022-12-22T00:42:13.596Z,84.44
2022-12-22T00:44:59.223Z,85.26
2022-12-22T00:47:47.765Z,85.62
2022-12-22T00:50:34.440Z,84.15
2022-12-22T00:53:21.281Z,84.63
2022-12-22T00:56:06.812Z,85.77
2022-12-22T00:58:53.313Z,85.91
2022-12-22T01:01:39.051Z,85.62
2022-12-22T01:04:24.096Z,87.70
2022-12-22T01:07:09.719Z,89.87
2022-12-22T01:09:55.432Z,89.69
2022-12-22T01:12:44.049Z,89.17
2022-12-22T01:15:36.541Z,88.75
2022-12-22T01:18:22.983Z,87.78
2022-12-22T01:21:09.633Z,86.36
2022-12-22T01:23:55.563Z,87.48
2022-12-22T01:26:40.780Z,87.94
2022-12-22T01:29:26.853Z,88.15
2022-12-22T01:32:12.483Z,87.21
2022-12-22T01:34:58.961Z,87.21
2022-12-22T01:37:44.445Z,83.55
2022-12-22T01:40:39.580Z,82.46
2022-12-22T01:43:42.624Z,82.65
2022-12-22T01:46:45.935Z,82.66
2022-12-22T01:50:02.470Z,82.54
2022-12-22T01:52:54.603Z,81.75
2022-12-22T01:55:43.193Z,82.67
2022-12-22T01:58:46.484Z,78.61
2022-12-22T02:01:32.642Z,78.43
2022-12-22T02:04:19.017Z,76.89
2022-12-22T02:07:05.526Z,78.38
2022-12-22T02:10:05.787Z,76.84
2022-12-22T02:13:09.716Z,79.08
2022-12-22T02:16:12.482Z,79.83
2022-12-22T02:19:09.477Z,79.74
2022-12-22T02:22:22.807Z,78.17
2022-12-22T02:25:17.638Z,78.82
2022-12-22T02:28:06.316Z,78.88
2022-12-22T02:30:52.345Z,78.80
2022-12-22T02:33:39.515Z,77.49
2022-12-22T02:36:55.576Z,77.17
2022-12-22T02:39:52.982Z,76.79
2022-12-22T02:42:53.790Z,77.30
2022-12-22T02:45:59.007Z,77.74
2022-12-22T02:48:59.990Z,76.71
2022-12-22T02:51:49.370Z,76.58
2022-12-22T02:54:36.597Z,75.16
2022-12-22T02:57:25.600Z,75.69
2022-12-22T03:00:11.316Z,75.96
2022-12-22T03:02:57.054Z,75.71
2022-12-22T03:05:42.698Z,74.75
2022-12-22T03:08:28.378Z,76.09
2022-12-22T03:11:13.961Z,75.75
2022-12-22T03:13:59.569Z,76.71
2022-12-22T03:16:45.216Z,77.24
2022-12-22T03:19:30.712Z,77.68
2022-12-22T03:22:16.380Z,79.11
2022-12-22T03:25:01.902Z,79.37
2022-12-22T03:27:29.007Z,80.11
2022-12-22T03:29:55.923Z,81.31
2022-12-22T03:32:22.940Z,80.89
2022-12-22T03:34:49.846Z,79.95
2022-12-22T03:37:16.741Z,79.51
2022-12-22T03:39:43.579Z,78.10
2022-12-22T03:42:30.673Z,77.33
2022-12-22T03:45:16.272Z,78.60
2022-12-22T03:47:43.151Z,76.61
2022-12-22T03:50:10.453Z,75.22
2022-12-22T03:52:37.476Z,75.41
2022-12-22T03:55:04.679Z,75.67
2022-12-22T03:57:31.829Z,76.03
2022-12-22T03:59:58.753Z,77.31
2022-12-22T04:02:25.810Z,78.47
2022-12-22T04:04:52.832Z,77.78
2022-12-22T04:07:19.772Z,78.21
2022-12-22T04:10:09.573Z,78.05
2022-12-22T04:12:54.736Z,79.80
2022-12-22T04:15:26.631Z,79.79
2022-12-22T04:17:53.877Z,79.38
2022-12-22T04:20:22.298Z,78.41
2022-12-22T04:22:49.888Z,77.62
2022-12-22T04:25:17.035Z,75.53
2022-12-22T04:27:44.033Z,75.36
2022-12-22T04:30:11.783Z,75.44
2022-12-22T04:32:38.798Z,77.38
2022-12-22T04:35:06.841Z,75.68
2022-12-22T04:37:34.620Z,74.43
2022-12-22T04:40:01.621Z,75.08
2022-12-22T04:42:28.624Z,74.66
2022-12-22T04:44:55.774Z,74.10
2022-12-22T04:47:22.644Z,74.07
2022-12-22T04:49:49.591Z,74.98
2022-12-22T04:52:16.484Z,75.27
2022-12-22T04:54:43.331Z,76.23
2022-12-22T04:57:10.279Z,78.22
2022-12-22T04:59:37.300Z,79.70
2022-12-22T05:02:04.363Z,78.52
2022-12-22T05:04:32.467Z,80.20
2022-12-22T05:06:59.545Z,82.69
2022-12-22T05:09:26.496Z,83.00
2022-12-22T05:11:53.389Z,83.34
2022-12-22T05:14:20.274Z,83.52
2022-12-22T05:16:47.328Z,84.44
2022-12-22T05:19:14.368Z,84.44
2022-12-22T05:21:41.209Z,85.03
2022-12-22T05:24:08.172Z,85.73
2022-12-22T05:26:35.060Z,85.27
2022-12-22T05:29:01.972Z,84.10
2022-12-22T05:31:28.904Z,82.17
2022-12-22T05:33:55.952Z,81.97
2022-12-22T05:36:22.945Z,82.89
2022-12-22T05:38:49.830Z,81.83
2022-12-22T05:41:16.756Z,81.32
2022-12-22T05:43:43.779Z,79.96
2022-12-22T05:46:11.768Z,80.61
2022-12-22T05:48:40.023Z,78.12
2022-12-22T05:51:08.839Z,74.23
2022-12-22T05:53:36.740Z,72.56
2022-12-22T05:56:04.380Z,68.96
2022-12-22T05:58:31.431Z,62.31
2022-12-22T06:00:59.094Z,57.78
2022-12-22T06:03:27.455Z,54.84
2022-12-22T06:05:55.261Z,53.02
2022-12-22T06:08:23.030Z,49.67
2022-12-22T06:10:50.182Z,47.18
2022-12-22T06:13:17.252Z,44.63
2022-12-22T06:15:44.261Z,43.26
2022-12-22T06:18:11.386Z,44.86
2022-12-22T06:20:38.259Z,46.16
2022-12-22T06:23:05.172Z,45.69
2022-12-22T06:25:32.151Z,43.98
2022-12-22T06:27:59.048Z,43.12
2022-12-22T06:30:32.905Z,42.05
2022-12-22T06:33:01.076Z,39.76
2022-12-22T06:35:28.277Z,40.28
2022-12-22T06:37:55.154Z,38.84
2022-12-22T06:40:22.003Z,40.08
2022-12-22T06:43:09.042Z,40.09
2022-12-22T06:45:38.561Z,39.05
2022-12-22T06:48:05.994Z,41.60
2022-12-22T06:50:33.257Z,42.42
2022-12-22T06:53:00.427Z,43.31
2022-12-22T06:55:27.406Z,41.99
2022-12-22T06:57:55.077Z,41.15
2022-12-22T07:00:22.474Z,41.47
2022-12-22T07:02:49.578Z,40.32
2022-12-22T07:05:17.096Z,39.04
2022-12-22T07:07:44.009Z,39.05
2022-12-22T07:10:11.983Z,38.39
2022-12-22T07:12:38.868Z,39.73
2022-12-22T07:15:06.646Z,40.92
2022-12-22T07:17:33.616Z,40.01
2022-12-22T07:20:00.494Z,41.43
2022-12-22T07:22:30.218Z,41.82
2022-12-22T07:24:58.435Z,43.96
2022-12-22T07:27:25.487Z,43.54
2022-12-22T07:29:52.370Z,43.47
2022-12-22T07:32:19.235Z,44.61
2022-12-22T07:34:46.453Z,48.48
2022-12-22T07:37:13.963Z,46.22
2022-12-22T07:39:40.963Z,45.15
2022-12-22T07:42:29.405Z,45.48
2022-12-22T07:44:56.989Z,44.34
2022-12-22T07:47:25.410Z,42.36
2022-12-22T07:50:14.378Z,43.85
2022-12-22T07:52:41.294Z,45.27
2022-12-22T07:55:09.028Z,45.81
2022-12-22T07:57:36.134Z,44.88
2022-12-22T08:00:04.535Z,44.44
2022-12-22T08:02:39.589Z,44.02
2022-12-22T08:05:08.161Z,42.43
2022-12-22T08:07:35.599Z,41.78
2022-12-22T08:10:02.683Z,40.87
2022-12-22T08:12:30.000Z,39.84
2022-12-22T08:14:57.117Z,39.19
2022-12-22T08:17:24.058Z,38.04
2022-12-22T08:19:51.017Z,39.36
2022-12-22T08:22:17.965Z,38.23
2022-12-22T08:24:44.852Z,37.59
2022-12-22T08:27:22.270Z,38.64
2022-12-22T08:29:57.301Z,37.71
2022-12-22T08:32:24.559Z,38.56
2022-12-22T08:34:52.947Z,36.52
2022-12-22T08:37:25.231Z,35.12
2022-12-22T08:39:58.922Z,35.34
2022-12-22T08:42:26.750Z,32.91
2022-12-22T08:44:53.653Z,31.65
2022-12-22T08:47:21.851Z,31.50
2022-12-22T08:49:49.884Z,31.55
2022-12-22T08:52:19.378Z,29.44
2022-12-22T08:54:47.008Z,30.07
2022-12-22T08:57:13.838Z,29.57
2022-12-22T08:59:40.751Z,31.71
2022-12-22T09:02:07.759Z,31.04
2022-12-22T09:04:35.590Z,33.02
2022-12-22T09:07:02.820Z,31.81
2022-12-22T09:09:34.484Z,31.80
2022-12-22T09:12:03.008Z,33.43
2022-12-22T09:14:30.762Z,35.35
2022-12-22T09:16:57.691Z,35.13
2022-12-22T09:19:24.725Z,34.78
2022-12-22T09:21:51.726Z,33.76
2022-12-22T09:24:18.756Z,32.64
2022-12-22T09:26:45.758Z,30.72
2022-12-22T09:29:15.732Z,32.97
2022-12-22T09:31:44.006Z,32.74
2022-12-22T09:34:17.072Z,31.28
2022-12-22T09:36:45.520Z,29.67
2022-12-22T09:39:12.597Z,30.46
2022-12-22T09:41:54.704Z,32.90
2022-12-22T09:44:21.506Z,33.63
2022-12-22T09:46:49.932Z,34.67
2022-12-22T09:49:19.166Z,32.56
2022-12-22T09:52:01.241Z,30.97
2022-12-22T09:54:30.069Z,30.47
2022-12-22T09:56:57.813Z,30.96
2022-12-22T09:59:27.761Z,30.40
2022-12-22T10:02:20.998Z,29.58
2022-12-22T10:05:04.694Z,30.44
2022-12-22T10:07:36.378Z,28.79
2022-12-22T10:10:25.545Z,30.69
2022-12-22T10:12:56.275Z,30.36
2022-12-22T10:15:24.005Z,30.31
2022-12-22T10:17:53.454Z,28.68
2022-12-22T10:20:25.536Z,28.67
2022-12-22T10:23:21.508Z,30.78
2022-12-22T10:28:51.133Z,30.68
2022-12-22T10:31:30.216Z,31.52
2022-12-22T10:34:11.347Z,31.51
2022-12-22T10:36:39.001Z,32.31
2022-12-22T10:39:09.516Z,31.08
2022-12-22T10:41:41.286Z,29.80
2022-12-22T10:44:22.739Z,31.99
2022-12-22T10:46:55.563Z,32.29
2022-12-22T10:49:30.913Z,31.17
2022-12-22T10:52:15.284Z,33.90
2022-12-22T10:54:44.898Z,33.68
2022-12-22T10:57:15.010Z,33.00
2022-12-22T10:59:55.315Z,34.84
2022-12-22T11:02:22.842Z,34.62
2022-12-22T11:04:51.242Z,32.09
2022-12-22T11:07:18.883Z,31.27
2022-12-22T11:09:45.874Z,33.53
2022-12-22T11:12:21.926Z,33.84
2022-12-22T11:15:18.528Z,33.43
2022-12-22T11:18:16.475Z,34.02
2022-12-22T11:21:05.416Z,32.95
2022-12-22T11:23:43.523Z,34.07
2022-12-22T11:26:19.521Z,33.16
2022-12-22T11:29:04.527Z,32.68
2022-12-22T11:31:37.517Z,33.33
2022-12-22T11:34:31.557Z,31.37
2022-12-22T11:37:21.656Z,33.00
2022-12-22T11:40:27.281Z,33.18
2022-12-22T11:43:21.584Z,33.60
2022-12-22T11:46:19.363Z,33.65
2022-12-22T11:49:05.083Z,32.75
2022-12-22T11:52:05.529Z,33.75
2022-12-22T11:54:50.867Z,34.48
2022-12-22T11:57:36.215Z,36.00
2022-12-22T12:00:11.518Z,35.03
2022-12-22T12:03:00.025Z,34.64
2022-12-22T12:05:44.112Z,34.15
2022-12-22T12:08:29.788Z,34.76
2022-12-22T12:11:11.634Z,36.33
2022-12-22T12:14:03.546Z,38.71
2022-12-22T12:17:03.169Z,38.83
2022-12-22T12:19:51.588Z,42.03
2022-12-22T12:22:33.688Z,40.21
2022-12-22T12:25:03.499Z,41.59
2022-12-22T12:27:39.605Z,40.89
2022-12-22T12:33:07.377Z,40.23
2022-12-22T12:35:40.458Z,39.47
2022-12-22T12:38:47.850Z,40.81
2022-12-22T12:41:33.451Z,42.27
2022-12-22T12:44:03.359Z,39.28
2022-12-22T12:47:16.431Z,38.85
2022-12-22T12:49:52.139Z,38.59
2022-12-22T12:52:48.814Z,37.21
2022-12-22T12:55:55.082Z,36.92
2022-12-22T12:58:39.755Z,37.05
2022-12-22T13:01:10.774Z,37.55
2022-12-22T13:06:49.929Z,38.31
2022-12-22T13:09:49.171Z,40.23
2022-12-22T13:12:54.164Z,40.66
2022-12-22T13:15:36.480Z,40.83
2022-12-22T13:18:09.769Z,43.56
2022-12-22T13:20:38.887Z,44.10
2022-12-22T13:23:13.769Z,45.34
2022-12-22T13:25:58.998Z,46.90
2022-12-22T13:28:27.711Z,46.23
2022-12-22T13:31:06.471Z,47.97
2022-12-22T13:33:38.363Z,48.37
2022-12-22T13:36:08.819Z,48.28
2022-12-22T13:38:37.785Z,49.12
2022-12-22T13:41:26.842Z,50.92
2022-12-22T13:44:04.619Z,51.28
2022-12-22T13:46:35.319Z,50.07
2022-12-22T13:49:04.980Z,50.20
2022-12-22T13:51:36.377Z,50.09
2022-12-22T13:54:11.127Z,51.51
2022-12-22T13:56:48.429Z,53.04
2022-12-22T13:59:38.531Z,53.54
2022-12-22T14:02:08.648Z,55.54
2022-12-22T14:04:38.143Z,54.76
2022-12-22T14:07:19.370Z,54.60
2022-12-22T14:09:48.180Z,56.34
2022-12-22T14:12:18.579Z,59.12
2022-12-22T14:14:47.728Z,58.76
2022-12-22T14:17:27.085Z,57.86
2022-12-22T14:19:59.808Z,57.54
2022-12-22T14:22:36.931Z,61.35
2022-12-22T14:25:12.420Z,64.16
2022-12-22T14:27:56.652Z,67.41
2022-12-22T14:30:38.895Z,70.01
2022-12-22T14:33:28.638Z,71.42
2022-12-22T14:36:18.412Z,69.72
2022-12-22T14:38:56.912Z,69.19
2022-12-22T14:41:42.964Z,68.87
2022-12-22T14:44:18.752Z,68.71
2022-12-22T14:47:01.345Z,69.49
2022-12-22T14:49:28.368Z,70.37
2022-12-22T14:52:08.730Z,69.39
2022-12-22T14:54:35.801Z,69.89
2022-12-22T14:57:15.601Z,69.79
2022-12-22T15:00:17.850Z,69.88
2022-12-22T15:02:54.381Z,70.79
2022-12-22T15:05:26.710Z,70.66
2022-12-22T15:08:05.980Z,70.88
2022-12-22T15:10:41.454Z,69.70
2022-12-22T15:13:30.883Z,71.40
2022-12-22T15:15:57.785Z,70.74
2022-12-22T15:18:27.484Z,72.58
2022-12-22T15:20:56.597Z,72.19
2022-12-22T15:23:23.653Z,72.23
2022-12-22T15:25:50.826Z,71.90
2022-12-22T15:28:17.866Z,71.03
2022-12-22T15:30:45.024Z,71.41
2022-12-22T15:33:15.264Z,72.08
2022-12-22T15:35:42.715Z,71.85
2022-12-22T15:38:15.888Z,73.47
2022-12-22T15:40:43.617Z,74.10
2022-12-22T15:43:22.769Z,74.31
2022-12-22T15:45:58.824Z,74.08
2022-12-22T15:48:33.111Z,75.21
2022-12-22T15:51:03.505Z,74.95
2022-12-22T15:53:31.954Z,76.48
2022-12-22T15:55:58.999Z,76.57
2022-12-22T15:58:29.438Z,75.29
2022-12-22T16:00:56.464Z,74.80
2022-12-22T16:03:23.530Z,74.76
2022-12-22T16:05:52.132Z,75.19
2022-12-22T16:08:26.303Z,77.69
2022-12-22T16:10:53.258Z,78.03
2022-12-22T16:13:25.146Z,78.61
2022-12-22T16:15:52.118Z,79.45
2022-12-22T16:18:19.161Z,78.03
2022-12-22T16:20:50.196Z,77.37
2022-12-22T16:23:20.419Z,75.91
2022-12-22T16:25:48.053Z,75.60
2022-12-22T16:28:19.386Z,75.26
2022-12-22T16:30:47.292Z,74.71
2022-12-22T16:33:15.246Z,73.93
2022-12-22T16:35:42.771Z,75.04
2022-12-22T16:38:16.326Z,75.40
2022-12-22T16:40:53.020Z,74.73
2022-12-22T16:46:20.009Z,75.59
2022-12-22T16:48:59.475Z,76.57
2022-12-22T16:51:34.379Z,74.70
2022-12-22T16:54:02.532Z,74.09
2022-12-22T16:56:31.417Z,78.29
2022-12-22T16:58:58.705Z,77.58
2022-12-22T17:01:31.482Z,75.53
2022-12-22T17:04:03.728Z,74.59
2022-12-22T17:06:31.005Z,74.79
2022-12-22T17:08:58.237Z,75.48
2022-12-22T17:11:29.374Z,75.74
2022-12-22T17:14:21.543Z,74.84
2022-12-22T17:16:48.480Z,74.84
2022-12-22T17:19:15.341Z,74.42
2022-12-22T17:21:42.400Z,74.60
2022-12-22T17:24:13.090Z,73.90
2022-12-22T17:26:39.968Z,73.82
2022-12-22T17:29:07.245Z,73.97
2022-12-22T17:31:34.164Z,73.78
2022-12-22T17:34:01.265Z,73.62
2022-12-22T17:36:37.330Z,74.00
2022-12-22T17:39:04.873Z,74.24
2022-12-22T17:41:32.970Z,72.60
2022-12-22T17:44:00.110Z,72.76
2022-12-22T17:46:28.086Z,73.36
2022-12-22T17:48:55.285Z,73.22
2022-12-22T17:51:28.561Z,72.83
2022-12-22T17:53:57.992Z,72.68
2022-12-22T17:56:26.892Z,73.05
2022-12-22T17:58:54.103Z,73.28
2022-12-22T18:01:25.595Z,74.06
2022-12-22T18:03:52.757Z,77.82
2022-12-22T18:06:23.332Z,78.70
2022-12-22T18:08:52.333Z,79.52
2022-12-22T18:11:19.370Z,79.33
2022-12-22T18:13:46.433Z,78.60
2022-12-22T18:16:16.672Z,78.97
2022-12-22T18:18:43.998Z,81.48
2022-12-22T18:21:20.314Z,81.33
2022-12-22T18:23:50.670Z,81.07
2022-12-22T18:26:27.477Z,80.61
2022-12-22T18:28:55.520Z,79.24
2022-12-22T18:31:23.483Z,79.37
2022-12-22T18:33:51.804Z,77.88
2022-12-22T18:36:23.158Z,76.00
2022-12-22T18:38:50.512Z,74.61
2022-12-22T18:41:21.262Z,72.81
2022-12-22T18:43:49.133Z,75.50
2022-12-22T18:46:16.246Z,73.71
2022-12-22T18:48:43.322Z,72.00
2022-12-22T18:51:28.093Z,74.17
2022-12-22T18:53:55.117Z,74.21
2022-12-22T18:56:22.134Z,73.84
2022-12-22T18:58:49.607Z,72.88
2022-12-22T19:01:27.013Z,71.81
2022-12-22T19:03:56.785Z,73.50
2022-12-22T19:06:23.898Z,73.99
2022-12-22T19:08:51.525Z,74.52
2022-12-22T19:11:24.717Z,75.85
2022-12-22T19:13:52.686Z,76.59
2022-12-22T19:16:25.281Z,77.67
2022-12-22T19:18:52.264Z,78.76
2022-12-22T19:21:20.148Z,80.79
2022-12-22T19:23:47.126Z,82.18
2022-12-22T19:26:23.258Z,82.10
2022-12-22T19:28:54.539Z,81.11
2022-12-22T19:31:31.252Z,80.02
2022-12-22T19:34:00.817Z,77.88
2022-12-22T19:36:29.997Z,78.75
2022-12-22T19:39:04.071Z,78.11
2022-12-22T19:41:38.828Z,78.64
2022-12-22T19:44:12.591Z,78.35
2022-12-22T19:46:39.584Z,78.68
2022-12-22T19:49:06.444Z,77.94
2022-12-22T19:51:33.318Z,78.90
2022-12-22T19:54:00.272Z,78.81
2022-12-22T19:56:29.980Z,77.82
2022-12-22T19:58:59.961Z,76.90
2022-12-22T20:01:27.150Z,78.52
2022-12-22T20:03:56.352Z,79.32
2022-12-22T20:06:23.289Z,80.04
2022-12-22T20:08:50.208Z,79.39
2022-12-22T20:11:19.550Z,79.69
2022-12-22T20:13:48.079Z,79.28
2022-12-22T20:16:16.899Z,79.35
2022-12-22T20:18:46.590Z,80.27
2022-12-22T20:21:25.774Z,81.40
2022-12-22T20:23:54.618Z,81.15
2022-12-22T20:26:25.000Z,81.78
2022-12-22T20:28:53.008Z,81.91
2022-12-22T20:31:22.516Z,83.01
2022-12-22T20:33:49.665Z,81.96
2022-12-22T20:36:23.757Z,81.03
2022-12-22T20:38:52.495Z,80.40
2022-12-22T20:41:20.972Z,79.71
2022-12-22T20:43:48.881Z,78.95
2022-12-22T20:46:21.688Z,78.79
2022-12-22T20:48:56.298Z,80.20
2022-12-22T20:51:25.694Z,80.28
2022-12-22T20:53:52.927Z,79.92
2022-12-22T20:56:32.495Z,81.31
2022-12-22T20:59:01.236Z,82.53
2022-12-22T21:01:28.776Z,82.84
2022-12-22T21:03:55.918Z,82.89
2022-12-22T21:06:27.786Z,83.57
2022-12-22T21:08:56.692Z,83.22
2022-12-22T21:11:24.280Z,83.14
2022-12-22T21:13:51.369Z,82.33
2022-12-22T21:16:23.077Z,81.54
2022-12-22T21:18:51.134Z,82.45
2022-12-22T21:21:17.992Z,78.77
2022-12-22T21:23:45.182Z,76.53
2022-12-22T21:26:34.219Z,78.65
2022-12-22T21:29:08.242Z,78.21
2022-12-22T21:31:35.186Z,79.46
2022-12-22T21:34:02.070Z,81.74
2022-12-22T21:36:34.053Z,82.54
2022-12-22T21:39:04.568Z,82.14
2022-12-22T21:41:49.946Z,83.77
2022-12-22T21:44:17.005Z,84.69
2022-12-22T21:46:46.429Z,87.05
2022-12-22T21:49:21.403Z,88.19
2022-12-22T21:51:49.296Z,86.24
2022-12-22T21:54:18.111Z,84.97
2022-12-22T21:56:45.295Z,85.02
2022-12-22T21:59:12.518Z,84.20
2022-12-22T22:01:41.083Z,84.01
2022-12-22T22:04:08.350Z,84.72
2022-12-22T22:06:35.469Z,84.87
2022-12-22T22:09:05.191Z,84.55
2022-12-22T22:11:32.441Z,86.23
2022-12-22T22:13:59.693Z,86.68
2022-12-22T22:16:26.651Z,86.87
2022-12-22T22:18:53.562Z,87.02
2022-12-22T22:21:20.454Z,86.53
2022-12-22T22:23:47.356Z,86.05
2022-12-22T22:26:14.280Z,87.98
2022-12-22T22:28:41.170Z,88.64
2022-12-22T22:31:11.778Z,85.74
2022-12-22T22:33:38.760Z,87.60
2022-12-22T22:36:08.872Z,86.83
2022-12-22T22:38:36.393Z,87.23
2022-12-22T22:41:03.497Z,87.31
2022-12-22T22:43:30.430Z,88.83
2022-12-22T22:45:57.451Z,92.01
2022-12-22T22:48:24.683Z,93.06
2022-12-22T22:50:51.778Z,92.98
2022-12-22T22:53:18.702Z,93.95
2022-12-22T22:55:45.562Z,92.82
2022-12-22T22:58:12.667Z,91.80
2022-12-22T23:00:39.640Z,90.63
2022-12-22T23:03:06.769Z,90.06
2022-12-22T23:05:33.941Z,89.67
2022-12-22T23:08:00.840Z,90.10
2022-12-22T23:10:27.753Z,94.60
2022-12-22T23:12:55.064Z,97.30
2022-12-22T23:15:21.943Z,97.63
2022-12-22T23:17:51.262Z,98.35
2022-12-22T23:20:18.387Z,97.56
2022-12-22T23:22:45.288Z,95.37
2022-12-22T23:25:12.411Z,93.36
2022-12-22T23:27:39.278Z,94.08
2022-12-22T23:30:07.511Z,93.29
2022-12-22T23:32:34.487Z,91.63
2022-12-22T23:35:01.455Z,91.61
2022-12-22T23:37:28.691Z,91.48
2022-12-22T23:39:56.129Z,91.57
2022-12-22T23:42:28.831Z,92.49
2022-12-22T23:44:55.714Z,93.73
2022-12-22T23:47:22.730Z,95.14
2022-12-22T23:49:49.607Z,94.88
2022-12-22T23:52:16.453Z,95.92
2022-12-22T23:54:43.399Z,95.95
2022-12-22T23:57:10.253Z,94.74
2022-12-22T23:59:37.110Z,94.58
